Time;durP1;ratioP1;P1;durP2;ratioP2;P2;SDS_P1;SDS_P2;PMS_P1;PMS_P2;Temp;Humidity;BMP_temperature;BMP_pressure;BME280_temperature;BME280_humidity;BME280_pressure;Samples;Min_cycle;Max_cycle;Signal;HPM_P1;HPM_P2
2022/05/10 00:00:42;;;;;;;14.07;6.20;;;3.50;1.00;;;4.06;69.68;100365.13;5038363;27;129658;-79
2022/05/10 00:03:11;;;;;;;11.20;4.93;;;3.50;1.00;;;4.00;69.90;100357.25;5055121;27;126658;-76
2022/05/10 00:05:42;;;;;;;10.65;4.45;;;3.50;1.00;;;3.94;70.53;100362.56;5042944;27;126094;-79
2022/05/10 00:08:16;;;;;;;10.13;4.00;;;3.50;1.00;;;3.92;70.77;100361.19;5042771;27;127608;-77
2022/05/10 00:10:47;;;;;;;7.93;3.35;;;3.40;1.00;;;3.89;71.09;100346.34;5048489;27;129936;-79
2022/05/10 00:13:16;;;;;;;12.10;3.47;;;3.40;1.00;;;3.83;71.24;100350.03;5047388;27;125744;-79
2022/05/10 00:15:47;;;;;;;6.32;3.05;;;3.30;1.00;;;3.82;71.09;100355.63;5046243;27;125863;-79
2022/05/10 00:18:18;;;;;;;7.45;2.60;;;3.30;1.00;;;3.74;71.55;100348.81;5035320;27;128873;-75
2022/05/10 00:20:48;;;;;;;9.00;2.45;;;3.30;1.00;;;3.72;71.86;100361.66;5051636;27;129696;-80
2022/05/10 00:23:16;;;;;;;5.30;2.30;;;3.30;1.00;;;3.71;71.79;100358.19;5027680;27;124515;-80
2022/05/10 00:25:46;;;;;;;6.10;2.88;;;3.30;1.00;;;3.72;71.42;100353.63;5043701;27;126003;-79
2022/05/10 00:28:15;;;;;;;6.50;2.42;;;3.30;1.00;;;3.71;71.55;100357.34;5041188;27;130694;-80
2022/05/10 00:30:43;;;;;;;7.28;3.10;;;3.30;1.00;;;3.71;71.09;100352.81;5042873;27;129487;-79
2022/05/10 00:33:19;;;;;;;6.70;2.40;;;3.30;1.00;;;3.68;71.20;100350.63;5049889;27;126115;-80
2022/05/10 00:35:47;;;;;;;6.20;2.40;;;3.20;1.00;;;3.67;71.22;100354.34;5047977;27;124917;-78
2022/05/10 00:38:16;;;;;;;6.60;2.67;;;3.20;1.00;;;3.64;71.14;100351.34;5046719;27;130101;-79
2022/05/10 00:40:46;;;;;;;8.82;3.28;;;3.10;1.00;;;3.60;71.18;100351.84;5035728;27;128275;-80
2022/05/10 00:43:31;;;;;;;5.82;3.03;;;3.10;1.00;;;3.58;71.58;100343.22;5054305;27;125291;-79
2022/05/10 00:46:04;;;;;;;5.70;2.80;;;3.10;1.00;;;3.60;71.46;100353.72;5031603;27;124980;-78
2022/05/10 00:48:38;;;;;;;9.70;2.88;;;3.00;1.00;;;3.55;71.53;100356.31;5055817;27;131697;-76
2022/05/10 00:51:15;;;;;;;6.80;2.45;;;3.00;1.00;;;3.53;71.46;100351.19;5056861;27;129432;-78
2022/05/10 00:54:00;;;;;;;5.68;2.60;;;3.00;1.00;;;3.50;72.49;100351.66;5053234;27;127502;-77
2022/05/10 00:56:38;;;;;;;7.25;3.00;;;3.00;1.00;;;3.49;72.43;100350.06;5056167;27;127430;-76
2022/05/10 00:59:17;;;;;;;8.32;3.03;;;3.00;1.00;;;3.39;72.31;100349.88;5039792;27;128898;-76
2022/05/10 01:01:50;;;;;;;7.32;2.75;;;3.00;1.00;;;3.33;72.65;100348.16;5055580;27;130077;-76
2022/05/10 01:04:29;;;;;;;6.32;2.47;;;2.90;1.00;;;3.29;73.39;100349.69;5055625;27;124664;-79
2022/05/10 01:07:04;;;;;;;9.18;2.95;;;2.80;1.00;;;3.26;72.94;100350.19;5056502;27;125756;-78
2022/05/10 01:09:43;;;;;;;7.20;2.75;;;2.80;1.00;;;3.26;73.07;100351.00;5037297;27;130236;-75
2022/05/10 01:12:22;;;;;;;7.20;2.83;;;2.70;1.00;;;3.27;72.39;100351.81;5057128;27;129115;-78
2022/05/10 01:14:57;;;;;;;5.50;2.85;;;2.50;1.00;;;3.26;72.52;100351.00;5057556;27;126242;-78
2022/05/10 01:17:25;;;;;;;5.95;2.30;;;2.50;1.00;;;3.23;73.15;100363.03;5056963;27;127052;-79
2022/05/10 01:19:54;;;;;;;6.28;2.83;;;2.50;1.00;;;3.10;73.70;100355.28;5050756;27;130357;-76
2022/05/10 01:22:57;;;;;;;5.60;2.58;;;2.50;1.00;;;3.00;74.32;100355.09;5037220;27;128419;-78
2022/05/10 01:25:51;;;;;;;6.20;2.50;;;2.50;1.00;;;2.95;74.89;100355.00;5051345;27;125828;-76
2022/05/10 01:28:27;;;;;;;5.65;2.72;;;2.40;1.00;;;2.93;74.84;100346.38;5056079;27;124996;-78
2022/05/10 01:31:00;;;;;;;7.95;2.90;;;2.30;1.00;;;2.86;75.16;100347.34;5052486;27;130153;-79
2022/05/10 01:33:33;;;;;;;7.95;3.00;;;2.30;1.00;;;2.80;75.65;100342.13;5036592;27;128819;-80
2022/05/10 01:36:24;;;;;;;5.57;2.53;;;2.30;1.00;;;2.78;75.70;100345.03;5053865;27;126064;-78
2022/05/10 01:39:02;;;;;;;7.47;2.75;;;2.20;1.00;;;2.69;75.96;100336.56;5029700;27;125229;-79
2022/05/10 01:41:47;;;;;;;9.35;2.70;;;2.20;1.00;;;2.61;76.22;100333.44;5037295;27;129798;-76
2022/05/10 01:44:26;;;;;;;9.00;2.28;;;2.20;1.00;;;2.60;76.27;100337.19;5035583;27;128889;-79
2022/05/10 01:47:00;;;;;;;7.20;2.60;;;2.20;1.00;;;2.64;75.88;100338.34;5044058;27;125635;-80
2022/05/10 01:49:41;;;;;;;6.18;2.65;;;2.20;1.00;;;2.63;75.88;100339.38;5048172;27;126625;-77
2022/05/10 01:52:17;;;;;;;6.07;2.50;;;2.10;1.00;;;2.62;75.81;100335.91;5055594;27;129756;-77
2022/05/10 01:55:25;;;;;;;4.70;2.30;;;2.10;1.00;;;2.60;76.02;100337.19;5055079;27;129913;-77
2022/05/10 01:57:57;;;;;;;5.45;2.45;;;2.10;1.00;;;2.60;76.11;100338.00;5035741;27;127011;-78
2022/05/10 02:00:29;;;;;;;7.15;3.30;;;2.10;1.00;;;2.53;76.30;100336.50;5054919;27;124623;-77
2022/05/10 02:03:04;;;;;;;7.47;3.00;;;2.10;1.00;;;2.56;76.47;100336.03;5043353;27;130570;-81
2022/05/10 02:05:41;;;;;;;5.90;2.85;;;2.10;1.00;;;2.53;76.94;100341.88;5040922;27;129783;-80
2022/05/10 02:08:19;;;;;;;7.80;2.72;;;2.10;1.00;;;2.54;76.53;100346.16;5038988;27;125904;-77
2022/05/10 02:10:51;;;;;;;6.68;2.25;;;2.00;1.00;;;2.60;75.61;100332.66;5029157;27;125585;-78
2022/05/10 02:13:25;;;;;;;6.80;2.60;;;2.00;1.00;;;2.60;75.97;100343.38;5035899;27;129051;-76
2022/05/10 02:16:01;;;;;;;8.30;2.55;;;2.00;1.00;;;2.63;75.65;100332.19;5037163;27;129082;-74
2022/05/10 02:18:35;;;;;;;6.20;2.63;;;2.00;1.00;;;2.64;75.52;100338.34;5041804;27;125012;-78
2022/05/10 02:21:14;;;;;;;6.40;2.75;;;1.80;1.00;;;2.64;75.24;100343.69;5045200;27;124555;-78
2022/05/10 02:23:52;;;;;;;5.80;2.97;;;1.80;1.00;;;2.63;75.31;100332.19;5045745;27;130197;-78
2022/05/10 02:26:28;;;;;;;6.90;2.95;;;1.90;1.00;;;2.65;76.00;100339.94;5060566;27;130164;-81
2022/05/10 02:29:04;;;;;;;5.37;2.77;;;1.90;1.00;;;2.60;76.24;100343.38;5061405;27;126078;-76
2022/05/10 02:34:26;;;;;;;7.55;3.63;;;2.00;1.00;;;2.59;75.98;100341.72;5057094;27;129232;-78
2022/05/10 02:36:55;;;;;;;8.23;2.90;;;1.90;1.00;;;2.62;76.57;100337.78;5052365;27;131413;-76
2022/05/10 02:39:23;;;;;;;10.07;3.90;;;1.90;1.00;;;2.64;76.59;100343.69;5040474;27;126882;-77
2022/05/10 02:41:51;;;;;;;5.95;2.72;;;1.90;1.00;;;2.53;76.50;100352.59;5043402;27;127550;-78
2022/05/10 02:44:20;;;;;;;7.45;3.20;;;1.80;1.00;;;2.37;77.11;100352.28;5041836;27;129495;-77
2022/05/10 02:46:50;;;;;;;7.78;3.08;;;1.80;1.00;;;2.38;77.13;100348.53;5026796;27;128978;-79
2022/05/10 02:49:19;;;;;;;8.88;3.15;;;1.80;1.00;;;2.45;76.56;100346.53;5046328;27;126313;-78
2022/05/10 02:51:47;;;;;;;5.55;2.65;;;1.80;1.00;;;2.47;76.94;100349.78;5029942;27;124704;-77
2022/05/10 02:54:16;;;;;;;9.20;3.22;;;1.80;1.00;;;2.53;76.64;100355.28;5030994;27;130130;-76
2022/05/10 02:56:45;;;;;;;5.43;2.45;;;1.80;1.00;;;2.60;76.51;100347.91;5047933;27;129704;-75
2022/05/10 02:59:21;;;;;;;6.90;2.35;;;1.90;1.00;;;2.78;76.43;100345.03;5048251;27;125665;-78
2022/05/10 03:02:00;;;;;;;10.75;2.72;;;2.00;1.00;;;3.04;76.07;100348.22;5032001;27;124741;-77
2022/05/10 03:04:35;;;;;;;5.20;2.50;;;2.20;1.00;;;3.50;75.46;100346.28;5033751;27;129282;-76
2022/05/10 03:07:05;;;;;;;9.30;2.75;;;2.50;1.00;;;4.16;73.40;100344.84;5052256;27;128758;-75
2022/05/10 03:09:34;;;;;;;9.25;3.65;;;2.90;1.00;;;4.76;71.56;100354.75;5048715;27;126355;-78
2022/05/10 03:12:04;;;;;;;6.60;3.13;;;3.20;1.00;;;5.35;67.67;100362.06;5042741;27;125135;-79
2022/05/10 03:14:33;;;;;;;4.97;2.45;;;3.50;1.00;;;5.90;65.72;100353.88;5032380;27;129542;-77
2022/05/10 03:17:04;;;;;;;6.63;2.80;;;4.10;1.00;;;5.99;63.75;100346.16;5054675;27;128758;-75
2022/05/10 03:19:34;;;;;;;7.50;3.35;;;4.10;1.00;;;5.78;63.61;100361.31;5053796;27;126245;-75
2022/05/10 03:22:03;;;;;;;8.13;4.65;;;4.00;1.00;;;5.58;63.65;100357.44;5051002;27;125572;-75
2022/05/10 03:24:32;;;;;;;7.97;3.50;;;3.70;1.00;;;5.39;64.18;100360.50;5060601;27;129926;-74
2022/05/10 03:27:03;;;;;;;7.78;3.38;;;3.50;1.00;;;5.35;64.53;100363.97;5038896;27;129595;-77
2022/05/10 03:29:32;;;;;;;9.30;4.78;;;3.50;1.00;;;5.30;64.99;100356.66;5036023;27;126462;-75
2022/05/10 03:32:02;;;;;;;14.38;5.15;;;3.50;1.00;;;5.26;64.92;100366.28;5054688;27;124987;-75
2022/05/10 03:37:17;;;;;;;11.27;4.40;;;3.60;1.00;;;5.18;65.74;100369.44;5050004;27;130371;-74
2022/05/10 03:39:45;;;;;;;8.85;4.72;;;3.70;1.00;;;5.21;65.65;100367.03;5059200;27;125232;-75
2022/05/10 03:42:14;;;;;;;10.40;4.30;;;3.80;1.00;;;5.22;65.89;100359.81;5037959;27;126419;-75
2022/05/10 03:44:43;;;;;;;13.00;4.75;;;3.80;1.00;;;5.22;65.89;100362.50;5039649;27;129982;-76
2022/05/10 03:47:12;;;;;;;8.15;3.83;;;3.90;1.00;;;5.30;64.87;100366.56;5044941;27;129678;-72
2022/05/10 03:49:41;;;;;;;11.40;3.85;;;4.00;1.00;;;5.47;64.30;100361.06;5062662;27;125943;-74
2022/05/10 03:52:15;;;;;;;7.63;3.10;;;4.20;1.00;;;5.52;64.57;100367.31;5053166;27;126009;-75
2022/05/10 03:54:46;;;;;;;5.88;3.45;;;4.30;1.00;;;5.70;63.65;100370.69;5039345;27;128880;-75
2022/05/10 03:57:15;;;;;;;5.55;2.83;;;4.30;1.00;;;5.84;63.54;100354.91;5051211;27;128433;-75
2022/05/10 03:59:43;;;;;;;6.38;2.88;;;4.50;1.00;;;5.98;63.26;100353.41;5051736;27;125014;-76
2022/05/10 04:02:16;;;;;;;5.07;2.70;;;4.60;1.00;;;5.99;62.85;100368.50;5047913;27;124578;-77
2022/05/10 04:04:44;;;;;;;8.73;3.03;;;4.60;1.00;;;6.10;62.42;100364.00;5055482;27;130011;-75
2022/05/10 04:07:15;;;;;;;7.80;3.00;;;4.70;1.00;;;6.16;62.26;100356.78;5052265;27;128703;-77
2022/05/10 04:09:44;;;;;;;9.43;3.70;;;4.80;1.00;;;6.38;61.83;100365.50;5047975;27;125821;-79
2022/05/10 04:12:12;;;;;;;5.63;2.97;;;5.00;1.00;;;6.34;60.83;100366.28;5025084;27;125930;-76
2022/05/10 04:14:41;;;;;;;7.20;3.00;;;5.00;1.00;;;6.45;59.65;100366.09;5036776;27;130316;-76
2022/05/10 04:17:09;;;;;;;5.05;2.40;;;5.10;1.00;;;6.58;59.08;100354.00;5017020;27;129670;-77
2022/05/10 04:19:40;;;;;;;8.23;2.35;;;5.30;1.00;;;6.52;58.59;100365.03;5038718;27;126983;-77
2022/05/10 04:22:09;;;;;;;7.88;2.80;;;5.40;1.00;;;6.53;58.57;100366.63;5023835;27;125421;-79
2022/05/10 04:24:37;;;;;;;5.20;2.35;;;5.50;1.00;;;6.60;58.79;100364.53;5039085;27;130049;-77
2022/05/10 04:27:06;;;;;;;5.15;2.67;;;5.60;1.00;;;6.66;57.74;100366.16;5046766;27;129899;-76
2022/05/10 04:29:35;;;;;;;4.32;2.25;;;5.70;1.00;;;6.70;56.50;100361.88;5041906;27;125558;-78
2022/05/10 04:32:05;;;;;;;5.03;2.40;;;5.70;1.00;;;6.91;55.91;100361.94;5041214;27;125939;-78
2022/05/10 04:34:36;;;;;;;7.53;2.40;;;5.90;1.00;;;6.92;55.08;100356.28;5016037;27;129587;-75
2022/05/10 04:37:07;;;;;;;6.88;2.10;;;6.00;1.00;;;7.07;54.26;100352.78;5032210;27;129145;-78
2022/05/10 04:42:21;;;;;;;6.00;2.45;;;6.40;1.00;;;7.44;53.63;100354.44;5046957;27;125001;-76
2022/05/10 04:44:50;;;;;;;5.78;2.10;;;6.60;1.00;;;7.63;53.83;100362.03;5043278;27;130369;-76
2022/05/10 04:47:18;;;;;;;5.68;1.85;;;6.70;1.00;;;7.78;53.25;100351.22;5038245;27;129923;-76
2022/05/10 04:49:47;;;;;;;4.57;2.20;;;6.80;1.00;;;7.97;52.44;100356.06;5042356;27;125354;-75
2022/05/10 04:52:17;;;;;;;5.88;2.13;;;6.90;1.00;;;8.12;52.88;100347.91;5046122;27;125657;-77
2022/05/10 04:54:45;;;;;;;4.88;2.38;;;7.00;1.00;;;8.33;52.07;100354.06;5034366;27;130065;-73
2022/05/10 04:57:13;;;;;;;4.38;2.10;;;7.10;1.00;;;8.51;51.71;100354.56;5026502;27;130388;-77
2022/05/10 04:59:42;;;;;;;3.83;2.13;;;7.20;1.00;;;8.83;51.34;100340.63;5033699;27;126229;-78
2022/05/10 05:02:10;;;;;;;4.22;2.15;;;7.50;1.00;;;8.93;50.31;100339.78;5045691;27;125131;-75
2022/05/10 05:04:38;;;;;;;6.13;2.60;;;7.60;1.00;;;9.09;50.07;100348.59;5023343;27;128772;-79
2022/05/10 05:07:09;;;;;;;4.95;2.20;;;7.80;1.00;;;9.23;49.41;100346.88;5023566;27;129799;-75
2022/05/10 05:09:38;;;;;;;4.70;2.22;;;7.80;1.00;;;9.43;47.32;100347.84;5028330;27;126350;-75
2022/05/10 05:12:07;;;;;;;4.40;2.20;;;8.10;1.00;;;9.61;46.50;100344.41;5027489;27;126027;-77
2022/05/10 05:14:36;;;;;;;4.45;2.33;;;8.30;1.00;;;9.57;45.71;100343.38;5027651;27;129187;-75
2022/05/10 05:17:06;;;;;;;5.82;1.98;;;8.40;1.00;;;9.69;45.76;100343.00;5032091;27;129375;-76
2022/05/10 05:19:34;;;;;;;4.13;2.20;;;8.50;1.00;;;9.86;45.49;100350.69;5044548;27;126666;-74
2022/05/10 05:22:03;;;;;;;5.90;2.28;;;8.70;1.00;;;10.03;44.29;100345.63;5025377;27;124609;-76
2022/05/10 05:24:32;;;;;;;4.63;2.15;;;8.80;1.00;;;10.05;44.37;100343.47;5042437;27;129852;-76
2022/05/10 05:27:01;;;;;;;5.72;2.33;;;8.80;1.00;;;10.24;44.20;100334.59;5041932;27;129122;-76
2022/05/10 05:29:30;;;;;;;6.85;2.17;;;9.00;1.00;;;10.41;44.00;100336.88;5043193;27;125910;-76
2022/05/10 05:32:01;;;;;;;6.53;2.53;;;9.10;1.00;;;10.51;42.52;100333.22;5039591;27;125858;-76
2022/05/10 05:34:30;;;;;;;4.88;1.70;;;9.20;99.90;;;10.49;41.40;100340.84;5041009;27;130324;-77
2022/05/10 05:39:45;;;;;;;5.30;1.60;;;9.50;99.90;;;10.84;39.00;100333.34;5029221;27;123975;-79
2022/05/10 05:42:15;;;;;;;4.25;1.80;;;9.70;99.90;;;10.72;38.29;100334.56;5040609;27;124858;-76
2022/05/10 05:44:43;;;;;;;3.03;1.50;;;9.80;99.90;;;10.63;37.23;100330.91;5019995;27;129751;-74
2022/05/10 05:47:12;;;;;;;6.35;1.73;;;9.80;99.90;;;10.96;36.92;100333.72;5041086;27;130137;-76
2022/05/10 05:49:41;;;;;;;3.75;1.50;;;10.00;99.90;;;11.13;36.85;100328.56;5047721;27;126563;-74
2022/05/10 05:52:09;;;;;;;3.65;1.35;;;10.00;99.90;;;10.98;37.49;100323.34;5038133;27;125693;-75
2022/05/10 05:54:38;;;;;;;4.95;1.75;;;10.10;99.90;;;11.26;37.21;100326.19;5032398;27;129562;-72
2022/05/10 05:57:08;;;;;;;4.53;2.17;;;10.20;99.90;;;11.10;38.04;100328.34;5037233;27;129122;-72
2022/05/10 05:59:38;;;;;;;3.47;1.55;;;10.20;99.90;;;10.97;37.47;100329.91;5036670;27;126260;-75
2022/05/10 06:02:12;;;;;;;4.15;1.65;;;10.10;99.90;;;11.03;37.46;100330.63;5038787;27;126402;-76
2022/05/10 06:04:41;;;;;;;5.15;1.45;;;10.00;99.90;;;11.23;37.30;100324.06;5020963;27;129796;-77
2022/05/10 06:07:12;;;;;;;3.58;1.45;;;10.20;99.90;;;11.17;37.01;100327.97;5037490;27;129873;-76
2022/05/10 06:09:41;;;;;;;4.32;1.42;;;10.30;99.90;;;11.19;35.93;100321.16;5040128;27;125922;-76
2022/05/10 06:12:13;;;;;;;3.47;1.50;;;10.30;99.90;;;11.08;35.95;100319.66;5037044;27;125101;-78
2022/05/10 06:14:43;;;;;;;3.83;1.55;;;10.30;99.90;;;11.24;33.58;100322.97;5037608;27;130601;-75
2022/05/10 06:17:14;;;;;;;4.68;1.50;;;10.50;99.90;;;11.50;33.16;100316.03;5037574;27;129328;-79
2022/05/10 06:19:44;;;;;;;2.50;1.50;;;10.60;99.90;;;11.38;33.75;100323.81;5038762;27;125747;-78
2022/05/10 06:22:16;;;;;;;1.75;1.23;;;10.60;99.90;;;11.64;33.01;100315.22;5019819;27;125440;-75
2022/05/10 06:24:45;;;;;;;2.83;1.40;;;10.60;99.90;;;11.60;33.00;100312.31;5036603;27;129559;-75
2022/05/10 06:27:17;;;;;;;4.35;1.60;;;10.70;99.90;;;11.42;34.07;100313.16;5035369;27;129489;-76
2022/05/10 06:29:49;;;;;;;3.88;1.38;;;10.70;99.90;;;11.57;33.62;100309.41;5037819;27;125694;-76
2022/05/10 06:32:23;;;;;;;4.45;1.50;;;10.70;99.90;;;11.90;32.44;100306.63;5038527;27;126443;-75
2022/05/10 06:34:53;;;;;;;3.30;1.65;;;11.00;99.90;;;11.97;32.86;100304.38;5021851;27;129650;-74
2022/05/10 06:40:12;;;;;;;4.13;1.40;;;10.80;99.90;;;12.09;32.27;100304.69;5041262;27;124578;-78
2022/05/10 06:42:41;;;;;;;7.22;1.38;;;11.20;99.90;;;12.26;32.58;100297.81;5031256;27;126635;-77
2022/05/10 06:45:16;;;;;;;5.28;1.98;;;11.10;99.90;;;12.84;31.99;100296.28;5048939;27;130224;-75
2022/05/10 06:47:48;;;;;;;3.75;1.75;;;11.40;99.90;;;12.42;32.11;100301.84;5040102;27;130368;-78
2022/05/10 06:50:20;;;;;;;4.18;1.30;;;11.30;99.90;;;12.33;32.25;100292.78;5043049;27;126519;-79
2022/05/10 06:52:51;;;;;;;3.67;1.40;;;11.10;99.90;;;12.53;32.48;100292.34;5040767;27;126220;-76
2022/05/10 06:55:22;;;;;;;5.50;1.45;;;11.40;99.90;;;12.94;32.73;100291.41;5040989;27;129676;-76
2022/05/10 06:57:51;;;;;;;3.63;1.55;;;11.70;99.90;;;12.94;31.82;100296.06;5041589;27;130098;-78
2022/05/10 07:00:22;;;;;;;3.85;1.70;;;11.50;99.90;;;12.74;31.72;100297.34;5026085;27;125265;-77
2022/05/10 07:02:51;;;;;;;6.00;1.50;;;11.50;99.90;;;12.69;32.15;100294.72;5023046;27;125556;-78
2022/05/10 07:05:20;;;;;;;4.53;1.60;;;11.30;99.90;;;12.58;32.32;100285.97;5019727;27;130506;-77
2022/05/10 07:07:49;;;;;;;2.83;1.52;;;11.40;99.90;;;12.12;32.16;100293.16;5039499;27;130825;-80
2022/05/10 07:10:19;;;;;;;3.97;1.73;;;11.10;99.90;;;12.04;32.23;100291.16;5040022;27;125845;-76
2022/05/10 07:12:48;;;;;;;2.80;1.30;;;11.00;99.90;;;12.17;32.68;100279.47;5038500;27;125220;-74
2022/05/10 07:15:19;;;;;;;3.50;1.48;;;11.20;99.90;;;12.62;32.34;100275.28;5038020;27;129861;-78
2022/05/10 07:17:53;;;;;;;2.65;1.10;;;11.60;99.90;;;12.90;31.84;100267.81;5039994;27;129955;-76
2022/05/10 07:20:22;;;;;;;2.45;1.15;;;11.80;99.90;;;12.73;30.95;100269.31;5036474;27;125600;-76
2022/05/10 07:22:51;;;;;;;5.70;1.67;;;11.70;99.90;;;12.54;30.52;100277.63;5035657;27;125114;-77
2022/05/10 07:25:24;;;;;;;3.65;1.40;;;11.40;99.90;;;12.45;30.76;100268.56;5035511;27;130850;-77
2022/05/10 07:27:53;;;;;;;4.07;1.60;;;11.50;99.90;;;12.98;31.70;100266.28;5035826;27;130267;-76
2022/05/10 07:30:21;;;;;;;4.50;1.60;;;12.00;99.90;;;13.54;30.24;100259.50;5034716;27;125270;-75
2022/05/10 07:32:52;;;;;;;2.08;1.20;;;12.20;99.90;;;13.24;28.92;100261.81;5036170;27;125760;-76
2022/05/10 07:36:23;;;;;;;3.17;1.30;;;12.10;99.90;;;13.35;29.52;100256.16;5020780;27;130269;-75
2022/05/10 07:38:15;;;;;;;3.45;1.30;;;12.10;99.90;;;13.19;29.41;100256.50;5037580;27;129514;-75
2022/05/10 07:40:47;;;;;;;4.07;1.30;;;11.90;99.90;;;12.77;29.91;100253.16;5035382;27;127300;-76
2022/05/10 07:43:16;;;;;;;2.85;1.20;;;11.70;99.90;;;12.88;29.79;100259.97;5016682;27;126216;-75
2022/05/10 07:45:49;;;;;;;2.65;1.17;;;11.70;99.90;;;12.76;30.12;100256.97;5016827;27;130928;-75
2022/05/10 07:48:19;;;;;;;2.65;1.20;;;11.80;99.90;;;13.07;29.07;100246.19;5035571;27;129915;-76
2022/05/10 07:50:50;;;;;;;2.38;1.15;;;11.70;99.90;;;13.09;28.25;100254.06;5034785;27;125611;-73
2022/05/10 07:53:18;;;;;;;1.58;1.05;;;11.90;99.90;;;13.14;28.80;100256.63;5033857;27;125483;-76
2022/05/10 07:55:47;;;;;;;2.10;1.25;;;11.90;99.90;;;13.63;28.59;100230.34;5015510;27;130142;-75
2022/05/10 07:58:15;;;;;;;4.78;1.48;;;12.00;99.90;;;13.51;28.08;100238.31;5035614;27;130380;-76
2022/05/10 08:00:44;;;;;;;1.30;1.10;;;12.10;99.90;;;12.93;28.17;100248.13;5035561;27;125902;-78
2022/05/10 08:03:17;;;;;;;3.70;1.40;;;11.90;99.90;;;12.82;28.67;100231.22;5033273;27;126846;-76
2022/05/10 08:05:48;;;;;;;4.15;1.20;;;11.90;99.90;;;13.20;28.65;100236.31;5023702;27;130208;-76
2022/05/10 08:08:18;;;;;;;13.02;6.40;;;12.30;99.90;;;13.45;28.44;100225.91;5021570;27;129144;-76
2022/05/10 08:10:48;;;;;;;3.35;1.50;;;12.40;99.90;;;13.52;28.05;100237.16;5021379;27;126329;-78
2022/05/10 08:13:20;;;;;;;5.10;1.40;;;12.50;99.90;;;14.01;27.30;100223.56;5025087;27;125569;-75
2022/05/10 08:15:50;;;;;;;4.50;1.42;;;12.70;99.90;;;14.37;27.53;100212.41;5036583;27;129646;-75
2022/05/10 08:18:20;;;;;;;3.35;1.50;;;12.90;99.90;;;14.89;27.62;100219.81;5035424;27;129124;-77
2022/05/10 08:20:52;;;;;;;3.00;1.40;;;13.10;99.90;;;14.65;27.56;100220.31;5035468;27;126225;-75
2022/05/10 08:23:25;;;;;;;3.55;1.35;;;12.90;99.90;;;14.28;27.49;100211.56;5039323;27;126397;-76
2022/05/10 08:25:55;;;;;;;4.28;1.95;;;12.80;99.90;;;14.27;28.00;100206.44;5033980;27;130339;-76
2022/05/10 08:28:25;;;;;;;3.63;1.40;;;12.90;99.90;;;13.71;27.69;100211.56;5020144;27;128780;-73
2022/05/10 08:30:54;;;;;;;2.25;1.17;;;12.30;99.90;;;13.48;27.99;100207.00;5019512;27;126013;-76
2022/05/10 08:33:26;;;;;;;4.43;1.50;;;12.30;99.90;;;13.94;27.89;100206.84;5035288;27;126742;-77
2022/05/10 08:35:58;;;;;;;4.07;1.60;;;12.50;99.90;;;14.46;28.11;100196.03;5035706;27;130964;-76
2022/05/10 08:38:28;;;;;;;3.20;1.55;;;13.00;99.90;;;14.82;28.04;100199.56;5022027;27;129130;-77
2022/05/10 08:41:04;;;;;;;2.40;1.48;;;13.30;99.90;;;15.17;27.37;100194.84;5037393;27;126978;-82
2022/05/10 08:43:37;;;;;;;;;;;13.60;99.90;;;15.06;27.38;100199.84;5037193;27;125728;-77
2022/05/10 08:46:11;;;;;;;3.42;1.63;;;13.70;99.90;;;14.67;27.29;100195.41;5020377;27;128790;-78
2022/05/10 08:48:39;;;;;;;3.25;1.50;;;12.90;99.90;;;13.95;27.87;100194.81;5015099;28;129576;-78
2022/05/10 08:51:09;;;;;;;4.38;2.00;;;12.50;99.90;;;14.62;28.56;100187.38;5014728;28;126130;-75
2022/05/10 08:53:38;;;;;;;2.60;1.60;;;13.10;99.90;;;15.24;27.33;100184.22;5016351;28;125909;-76
2022/05/10 08:56:21;;;;;;;2.83;1.40;;;13.40;99.90;;;14.83;26.65;100188.31;5019107;28;129445;-80
2022/05/10 08:59:05;;;;;;;2.28;1.50;;;13.30;99.90;;;14.28;27.55;100184.28;5014104;28;130563;-79
2022/05/10 09:01:40;;;;;;;5.68;1.60;;;12.80;99.90;;;15.16;29.17;100167.84;5015518;28;126278;-78
2022/05/10 09:04:31;;;;;;;3.83;1.30;;;13.50;99.90;;;15.24;27.64;100175.25;5014255;28;125450;-78
2022/05/10 09:07:11;;;;;;;5.80;1.63;;;13.80;99.90;;;14.46;27.91;100173.34;5015661;28;130508;-77
2022/05/10 09:09:55;;;;;;;2.80;1.40;;;13.00;99.90;;;14.81;26.87;100174.19;5016757;28;129590;-79
2022/05/10 09:12:25;;;;;;;3.28;1.23;;;13.20;99.90;;;14.33;26.88;100169.66;5018036;28;125402;-77
2022/05/10 09:14:59;;;;;;;5.38;1.42;;;13.00;99.90;;;14.48;26.98;100155.53;5022294;28;126006;-77
2022/05/10 09:17:32;;;;;;;2.70;1.40;;;13.00;99.90;;;14.89;27.13;100154.22;5020152;28;130344;-78
2022/05/10 09:20:01;;;;;;;4.18;1.25;;;13.40;99.90;;;15.17;26.91;100147.59;5016628;28;129927;-77
2022/05/10 09:22:58;;;;;;;3.33;1.30;;;13.30;99.90;;;15.17;27.01;100145.66;5020551;28;125844;-79
2022/05/10 09:25:34;;;;;;;3.38;1.58;;;13.70;99.90;;;15.63;27.54;100148.69;5017948;28;126673;-76
2022/05/10 09:28:14;;;;;;;3.78;1.73;;;13.70;99.90;;;16.15;29.50;100131.16;5020895;28;130127;-76
2022/05/10 09:34:45;;;;;;;4.40;2.05;;;14.30;99.90;;;16.56;27.22;100134.22;5021373;28;128379;-78
2022/05/10 09:36:27;;;;;;;3.45;1.40;;;13.90;99.90;;;15.87;26.99;100114.47;5005348;28;127169;-77
2022/05/10 09:39:15;;;;;;;3.25;1.38;;;13.30;99.90;;;15.92;26.86;100127.94;5008971;28;129651;-75
2022/05/10 09:41:48;;;;;;;7.40;1.67;;;13.50;99.90;;;15.43;27.50;100122.88;5020471;28;129522;-79
2022/05/10 09:44:24;;;;;;;3.08;1.35;;;13.70;99.90;;;15.34;27.04;100108.44;5036362;27;124194;-76
2022/05/10 09:47:14;;;;;;;4.32;1.85;;;13.40;99.90;;;14.72;27.95;100116.84;5015271;28;125552;-75
2022/05/10 09:49:42;;;;;;;2.70;1.60;;;13.50;99.90;;;15.24;27.63;100109.63;5034581;27;129941;-80
2022/05/10 09:52:20;;;;;;;4.03;1.40;;;13.60;99.90;;;15.53;27.11;100113.50;5043305;27;129797;-77
2022/05/10 09:54:54;;;;;;;1.55;1.10;;;13.80;99.90;;;15.54;26.90;100109.63;5042327;27;125674;-76
2022/05/10 09:57:32;;;;;;;3.65;1.52;;;13.50;99.90;;;15.39;27.54;100110.97;5044481;27;125508;-76
2022/05/10 10:00:01;;;;;;;3.47;1.27;;;13.80;99.90;;;16.06;26.97;100103.84;5039493;27;129916;-77
2022/05/10 10:02:35;;;;;;;4.45;1.63;;;13.90;99.90;;;15.54;26.79;100098.69;5042602;27;129242;-73
2022/05/10 10:05:25;;;;;;;4.78;1.65;;;13.90;99.90;;;14.57;28.01;100098.19;5039733;27;125809;-76
2022/05/10 10:07:57;;;;;;;3.40;1.73;;;13.30;99.90;;;14.66;28.59;100090.81;5045025;27;125987;-79
2022/05/10 10:10:31;;;;;;;9.00;1.95;;;13.50;99.90;;;14.83;27.67;100091.88;5040636;27;129731;-79
2022/05/10 10:13:00;;;;;;;4.68;1.60;;;13.50;99.90;;;14.61;28.33;100082.78;5003938;27;129933;-81
2022/05/10 10:15:38;;;;;;;2.63;1.35;;;13.60;99.90;;;14.83;28.70;100079.03;5020896;27;126717;-77
2022/05/10 10:18:09;;;;;;;2.75;1.50;;;13.60;99.90;;;14.95;28.35;100086.56;5041934;27;126649;-77
2022/05/10 10:20:47;;;;;;;3.38;1.70;;;13.70;99.90;;;14.85;28.13;100073.22;5039403;27;130277;-77
2022/05/10 10:23:32;;;;;;;3.67;1.40;;;13.80;99.90;;;14.83;28.45;100072.75;5038135;27;129764;-79
2022/05/10 10:26:14;;;;;;;4.57;1.60;;;13.70;99.90;;;14.89;28.53;100071.47;5011162;27;125361;-74
2022/05/10 10:28:53;;;;;;;3.20;1.70;;;13.50;99.90;;;15.22;28.39;100070.84;5041221;27;125612;-79
2022/05/10 10:31:28;;;;;;;4.28;1.40;;;14.10;99.90;;;14.96;28.28;100079.16;5037477;27;130115;-78
2022/05/10 10:34:04;;;;;;;3.05;1.30;;;13.90;99.90;;;15.34;27.84;100065.47;5027365;27;129602;-75
2022/05/10 10:36:42;;;;;;;2.25;1.38;;;13.80;99.90;;;15.91;27.72;100066.13;5045225;27;125821;-79
2022/05/10 10:39:19;;;;;;;3.75;1.25;;;14.30;99.90;;;16.45;27.00;100057.13;5046661;27;126050;-78
2022/05/10 10:41:55;;;;;;;3.20;1.30;;;14.40;99.90;;;16.51;26.74;100055.78;5043383;27;130352;-80
2022/05/10 10:44:27;;;;;;;3.72;1.63;;;14.60;99.90;;;16.65;26.34;100047.25;5043011;27;130234;-76
2022/05/10 10:47:09;;;;;;;3.20;1.25;;;14.60;99.90;;;16.88;25.90;100043.00;5045465;27;126461;-79
2022/05/10 10:49:47;;;;;;;3.47;1.30;;;14.40;99.90;;;16.35;25.97;100044.66;5046383;27;125222;-80
2022/05/10 10:52:17;;;;;;;3.35;1.40;;;14.40;99.90;;;16.09;26.86;100045.69;5020479;27;130124;-75
2022/05/10 10:54:47;;;;;;;4.45;1.50;;;14.20;99.90;;;16.64;26.62;100037.44;5050332;27;131068;-77